Terminal Aerodrome Forecast
Issued by NWS Wichita, KS

Home | Current Version | Previous Version | Text Only | Print | Product List | Glossary On
Versions: 1 2 3 4 5 6 7 8 9 10 11 12 13 14 15 16 17 18 19 20 21 22
000
FTUS43 KICT 231437 AAB
TAFICT
TAF AMD
KICT 231437Z 2315/2412 18011KT P6SM SCT009 BKN015
     FM231700 24006KT P6SM BKN015
     FM232000 34027G36KT 6SM -RA BKN025
     FM240200 33016G23KT P6SM SCT060 BKN100
     FM240600 30014KT P6SM FEW100 SCT250=

USA.gov is the U.S. government's official web portal to all federal, state and local government web resources and services.